Time;durP1;ratioP1;P1;durP2;ratioP2;P2;SDS_P1;SDS_P2;PMS_P1;PMS_P2;Temp;Humidity;BMP_temperature;BMP_pressure;BME280_temperature;BME280_humidity;BME280_pressure;Samples;Min_cycle;Max_cycle;Signal;HPM_P1;HPM_P2
2022/03/05 00:02:20;;;;;;;17.77;9.93;;;0.90;99.90;;;;;;5078474;28;20048;-68
2022/03/05 00:04:47;;;;;;;18.67;10.65;;;0.90;99.90;;;;;;5080965;28;20042;-67
2022/03/05 00:07:12;;;;;;;17.77;10.25;;;0.90;99.90;;;;;;5076493;28;20462;-67
2022/03/05 00:09:38;;;;;;;19.67;10.88;;;1.00;99.90;;;;;;5087233;28;20051;-67
2022/03/05 00:12:03;;;;;;;18.40;10.38;;;0.90;99.90;;;;;;5068776;28;20110;-67
2022/03/05 00:14:29;;;;;;;17.90;10.20;;;0.90;99.90;;;;;;5076584;28;20238;-67
2022/03/05 00:16:54;;;;;;;16.58;10.05;;;0.80;99.90;;;;;;5076574;28;20058;-67
2022/03/05 00:19:21;;;;;;;17.42;10.13;;;0.80;99.90;;;;;;5071589;28;20812;-67
2022/03/05 00:21:46;;;;;;;17.27;10.00;;;0.80;99.90;;;;;;5076157;28;20043;-67
2022/03/05 00:24:12;;;;;;;18.77;10.45;;;0.80;99.90;;;;;;5089883;28;20343;-67
2022/03/05 00:26:38;;;;;;;16.42;9.60;;;0.80;99.90;;;;;;5094472;28;20055;-67
2022/03/05 00:29:04;;;;;;;17.25;10.27;;;0.80;99.90;;;;;;5083338;28;20371;-67
2022/03/05 00:31:29;;;;;;;18.08;10.00;;;0.80;99.90;;;;;;5081728;28;20044;-67
2022/03/05 00:33:55;;;;;;;17.90;9.82;;;0.70;99.90;;;;;;5086904;28;20505;-68
2022/03/05 00:36:21;;;;;;;17.63;9.68;;;0.70;99.90;;;;;;5077203;28;20146;-68
2022/03/05 00:38:46;;;;;;;19.80;10.48;;;0.70;99.90;;;;;;5086041;28;20385;-67
2022/03/05 00:41:12;;;;;;;19.63;9.80;;;0.70;99.90;;;;;;5077303;28;20401;-67
2022/03/05 00:43:37;;;;;;;19.25;10.73;;;0.70;99.90;;;;;;5075547;28;20476;-67
2022/03/05 00:46:03;;;;;;;17.35;10.10;;;0.70;99.90;;;;;;5074428;28;20090;-67
2022/03/05 00:48:29;;;;;;;20.40;9.90;;;0.60;99.90;;;;;;5079584;28;20450;-67
2022/03/05 00:50:54;;;;;;;17.17;9.65;;;0.60;99.90;;;;;;5078969;28;20115;-67
2022/03/05 00:53:21;;;;;;;18.45;10.50;;;0.60;99.90;;;;;;5080625;28;20071;-67
2022/03/05 00:55:47;;;;;;;17.73;10.15;;;0.60;99.90;;;;;;5080280;28;20100;-67
2022/03/05 00:58:14;;;;;;;19.42;10.10;;;0.60;99.90;;;;;;5081422;28;20066;-67
2022/03/05 01:00:40;;;;;;;17.85;10.38;;;0.60;99.90;;;;;;5074584;28;20150;-67
2022/03/05 01:03:06;;;;;;;18.15;9.75;;;0.60;99.90;;;;;;5082003;28;20524;-68
2022/03/05 01:05:32;;;;;;;18.05;10.02;;;0.60;99.90;;;;;;5061578;28;20048;-67
2022/03/05 01:07:57;;;;;;;19.70;10.48;;;0.50;99.90;;;;;;5079762;28;20044;-68
2022/03/05 01:10:23;;;;;;;18.15;10.60;;;0.50;99.90;;;;;;5077006;28;20099;-68
2022/03/05 01:12:49;;;;;;;17.55;9.60;;;0.60;99.90;;;;;;5113272;27;20045;-67
2022/03/05 01:15:14;;;;;;;18.13;9.43;;;0.60;99.90;;;;;;5081102;28;20088;-67
2022/03/05 01:17:41;;;;;;;18.38;9.65;;;0.60;99.90;;;;;;5078327;28;20040;-67
2022/03/05 01:20:07;;;;;;;18.55;9.55;;;0.50;99.90;;;;;;5078493;28;20430;-67
2022/03/05 01:22:32;;;;;;;18.25;9.88;;;0.50;99.90;;;;;;5078139;28;20059;-67
2022/03/05 01:24:58;;;;;;;16.92;9.75;;;0.50;99.90;;;;;;5080976;28;20048;-67
2022/03/05 01:27:23;;;;;;;17.10;9.98;;;0.40;99.90;;;;;;5078628;28;20048;-67
2022/03/05 01:29:50;;;;;;;17.85;9.60;;;0.40;99.90;;;;;;5077131;28;20044;-67
2022/03/05 01:32:16;;;;;;;18.23;10.18;;;0.40;99.90;;;;;;5064296;28;20038;-68
2022/03/05 01:34:41;;;;;;;19.58;10.35;;;0.40;99.90;;;;;;5078553;28;20073;-68
2022/03/05 01:37:07;;;;;;;16.40;9.45;;;0.40;99.90;;;;;;5081794;28;20047;-67
2022/03/05 01:39:33;;;;;;;19.05;9.88;;;0.40;99.90;;;;;;5089769;28;20036;-68
2022/03/05 01:41:58;;;;;;;17.27;9.80;;;0.30;99.90;;;;;;5078535;28;20470;-67
2022/03/05 01:44:24;;;;;;;18.33;9.60;;;0.40;99.90;;;;;;5089932;28;20363;-67
2022/03/05 01:46:50;;;;;;;18.40;9.40;;;0.40;99.90;;;;;;5085385;28;20032;-68
2022/03/05 01:49:16;;;;;;;19.23;9.52;;;0.40;99.90;;;;;;5082256;28;20484;-68
2022/03/05 01:51:42;;;;;;;17.08;10.07;;;0.40;99.90;;;;;;5081559;28;20419;-68
2022/03/05 01:54:09;;;;;;;18.25;10.02;;;0.40;99.90;;;;;;5079373;28;20118;-68
2022/03/05 01:56:36;;;;;;;16.23;8.63;;;0.30;99.90;;;;;;5077805;28;20035;-68
2022/03/05 01:59:02;;;;;;;20.25;9.63;;;0.30;99.90;;;;;;5077067;28;20068;-68
2022/03/05 02:01:29;;;;;;;17.08;9.75;;;0.30;99.90;;;;;;5075649;28;20373;-67
2022/03/05 02:03:55;;;;;;;18.83;9.80;;;0.30;99.90;;;;;;5075390;28;20113;-67
2022/03/05 02:06:21;;;;;;;16.63;9.18;;;0.30;99.90;;;;;;5079395;28;20048;-68
2022/03/05 02:08:48;;;;;;;16.73;8.93;;;0.30;99.90;;;;;;5077443;28;20048;-67
2022/03/05 02:11:14;;;;;;;19.58;9.95;;;0.30;99.90;;;;;;5079330;28;20068;-68
2022/03/05 02:13:41;;;;;;;15.20;9.20;;;0.30;99.90;;;;;;5077628;28;20078;-68
2022/03/05 02:16:06;;;;;;;16.52;9.25;;;0.30;99.90;;;;;;5080353;28;20044;-68
2022/03/05 02:18:32;;;;;;;15.52;9.13;;;0.30;99.90;;;;;;5076185;28;20048;-67
2022/03/05 02:20:58;;;;;;;15.15;8.93;;;0.30;99.90;;;;;;5077045;28;20462;-67
2022/03/05 02:23:24;;;;;;;15.63;8.40;;;0.30;99.90;;;;;;5076886;28;20040;-67
2022/03/05 02:25:54;;;;;;;15.90;8.98;;;0.30;99.90;;;;;;5079519;28;20135;-68
2022/03/05 02:28:21;;;;;;;16.65;9.00;;;0.30;99.90;;;;;;5076878;28;20081;-67
2022/03/05 02:30:47;;;;;;;18.20;9.38;;;0.30;99.90;;;;;;5075252;28;20617;-68
2022/03/05 02:33:13;;;;;;;15.98;8.80;;;0.30;99.90;;;;;;5086284;28;20722;-67
2022/03/05 02:35:39;;;;;;;16.02;8.65;;;0.30;99.90;;;;;;5083622;28;20045;-67
2022/03/05 02:38:04;;;;;;;17.48;8.63;;;0.20;99.90;;;;;;5082826;28;20050;-67
2022/03/05 02:40:30;;;;;;;15.82;8.63;;;0.20;99.90;;;;;;5086376;28;20040;-67
2022/03/05 02:42:55;;;;;;;16.42;9.45;;;0.20;99.90;;;;;;5088936;28;20050;-67
2022/03/05 02:45:21;;;;;;;16.33;8.95;;;0.10;99.90;;;;;;5079459;28;20131;-67
2022/03/05 02:47:47;;;;;;;16.42;8.50;;;0.20;99.90;;;;;;5077354;28;20370;-67
2022/03/05 02:50:12;;;;;;;18.13;9.07;;;0.10;99.90;;;;;;5078208;28;20036;-68
2022/03/05 02:52:39;;;;;;;17.02;8.48;;;0.10;99.90;;;;;;5090986;28;20048;-68
2022/03/05 02:55:05;;;;;;;16.15;8.82;;;0.10;99.90;;;;;;5069807;28;20132;-66
2022/03/05 02:57:31;;;;;;;17.10;9.43;;;0.10;99.90;;;;;;5094692;28;20047;-65
2022/03/05 02:59:56;;;;;;;15.25;8.27;;;0.00;99.90;;;;;;5088356;28;20364;-65
2022/03/05 03:02:22;;;;;;;14.43;7.82;;;0.10;99.90;;;;;;5089989;28;20039;-65
2022/03/05 03:04:48;;;;;;;16.02;8.55;;;0.00;99.90;;;;;;5085278;28;20043;-65
2022/03/05 03:07:13;;;;;;;17.23;9.35;;;0.00;99.90;;;;;;5090637;28;20820;-67
2022/03/05 03:09:39;;;;;;;15.57;8.43;;;0.00;99.90;;;;;;5090511;28;20075;-66
2022/03/05 03:12:05;;;;;;;18.67;9.45;;;0.10;99.90;;;;;;5097768;28;20040;-66
2022/03/05 03:14:30;;;;;;;16.95;9.25;;;0.00;99.90;;;;;;5082773;28;20075;-66
2022/03/05 03:16:56;;;;;;;15.93;8.75;;;0.00;99.90;;;;;;5081753;28;20087;-66
2022/03/05 03:19:21;;;;;;;15.98;8.38;;;-0.10;99.90;;;;;;5083645;28;20044;-66
2022/03/05 03:21:47;;;;;;;15.55;7.88;;;0.00;99.90;;;;;;5092139;28;20449;-66
2022/03/05 03:24:12;;;;;;;16.60;8.85;;;0.00;99.90;;;;;;5089453;28;20039;-67
2022/03/05 03:26:38;;;;;;;17.10;8.40;;;0.00;99.90;;;;;;5078255;28;20040;-67
2022/03/05 03:29:03;;;;;;;13.85;7.80;;;-0.10;99.90;;;;;;5081308;28;20113;-67
2022/03/05 03:31:29;;;;;;;15.50;8.23;;;0.00;99.90;;;;;;5087058;28;20032;-67
2022/03/05 03:33:54;;;;;;;15.65;8.00;;;-0.10;99.90;;;;;;5087434;28;20060;-67
2022/03/05 03:36:20;;;;;;;14.13;7.85;;;-0.10;99.90;;;;;;5088516;28;20056;-67
2022/03/05 03:38:46;;;;;;;16.50;7.80;;;0.00;99.90;;;;;;5086769;28;20123;-67
2022/03/05 03:41:11;;;;;;;12.65;7.25;;;-0.10;99.90;;;;;;5090995;28;20075;-67
2022/03/05 03:43:37;;;;;;;13.70;7.30;;;-0.10;99.90;;;;;;5090911;28;20351;-67
2022/03/05 03:46:02;;;;;;;16.00;8.02;;;-0.20;99.90;;;;;;5089488;28;20604;-67
2022/03/05 03:48:28;;;;;;;14.77;8.50;;;-0.10;99.90;;;;;;5090710;28;20109;-67
2022/03/05 03:50:53;;;;;;;16.23;8.73;;;-0.10;99.90;;;;;;5094977;28;20036;-67
2022/03/05 03:53:19;;;;;;;16.52;8.70;;;-0.20;99.90;;;;;;5089478;28;20036;-67
2022/03/05 03:55:45;;;;;;;13.55;7.70;;;-0.30;99.90;;;;;;5088827;28;20063;-67
2022/03/05 03:58:10;;;;;;;15.00;8.43;;;-0.30;99.90;;;;;;5089012;28;20062;-67
2022/03/05 04:00:36;;;;;;;13.55;6.88;;;-0.40;99.90;;;;;;5089024;28;20115;-67
2022/03/05 04:03:02;;;;;;;14.68;7.15;;;-0.40;99.90;;;;;;5089094;28;20097;-67
2022/03/05 04:05:28;;;;;;;14.80;7.78;;;-0.40;99.90;;;;;;5088514;28;20054;-67
2022/03/05 04:10:38;;;;;;;15.98;8.30;;;-0.40;99.90;;;;;;5088693;28;20496;-67
2022/03/05 04:13:03;;;;;;;17.25;8.05;;;-0.50;99.90;;;;;;5089589;28;20147;-67
2022/03/05 04:15:29;;;;;;;14.93;8.05;;;-0.50;99.90;;;;;;5087802;28;20044;-67
2022/03/05 04:17:54;;;;;;;17.08;8.38;;;-0.50;99.90;;;;;;5088878;28;20050;-67
2022/03/05 04:20:20;;;;;;;15.25;8.20;;;-0.50;99.90;;;;;;5088030;28;20082;-67
2022/03/05 04:22:46;;;;;;;13.73;7.72;;;-0.40;99.90;;;;;;5097597;28;20058;-67
2022/03/05 04:25:11;;;;;;;12.40;7.00;;;-0.50;99.90;;;;;;5090709;28;20047;-67
2022/03/05 04:27:37;;;;;;;14.25;7.72;;;-0.50;99.90;;;;;;5094151;28;20064;-67
2022/03/05 04:30:04;;;;;;;15.07;7.97;;;-0.60;99.90;;;;;;5085679;28;20188;-67
2022/03/05 04:32:30;;;;;;;15.60;8.38;;;-0.60;99.90;;;;;;5089643;28;20062;-67
2022/03/05 04:34:56;;;;;;;13.68;7.50;;;-0.60;99.90;;;;;;5093058;28;20048;-67
2022/03/05 04:37:21;;;;;;;14.60;7.43;;;-0.60;99.90;;;;;;5088820;28;20067;-67
2022/03/05 04:39:47;;;;;;;14.77;7.75;;;-0.50;99.90;;;;;;5091983;28;20047;-67
2022/03/05 04:42:12;;;;;;;16.50;8.07;;;-0.50;99.90;;;;;;5095287;28;20097;-68
2022/03/05 04:44:38;;;;;;;19.10;8.80;;;-0.60;99.90;;;;;;5084236;28;20036;-66
2022/03/05 04:47:03;;;;;;;16.77;8.05;;;-0.60;99.90;;;;;;5091490;28;20105;-67
2022/03/05 04:49:29;;;;;;;15.20;8.15;;;-0.50;99.90;;;;;;5090010;28;20499;-67
2022/03/05 04:51:55;;;;;;;16.95;8.55;;;-0.50;99.90;;;;;;5093389;28;20035;-67
2022/03/05 04:54:20;;;;;;;18.10;8.82;;;-0.60;99.90;;;;;;5092134;28;20182;-67
2022/03/05 04:56:46;;;;;;;15.57;7.82;;;-0.60;99.90;;;;;;5093901;28;20362;-67
2022/03/05 04:59:11;;;;;;;15.23;7.50;;;-0.60;99.90;;;;;;5093050;28;20347;-67
2022/03/05 05:01:37;;;;;;;17.45;8.38;;;-0.60;99.90;;;;;;5096930;28;20039;-67
2022/03/05 05:04:03;;;;;;;16.27;8.80;;;-0.60;99.90;;;;;;5096529;28;20039;-67
2022/03/05 05:06:28;;;;;;;14.60;7.55;;;-0.70;99.90;;;;;;5090427;28;20032;-67
2022/03/05 05:08:54;;;;;;;16.48;8.30;;;-0.70;99.90;;;;;;5087752;28;20064;-67
2022/03/05 05:11:20;;;;;;;16.58;8.43;;;-0.70;99.90;;;;;;5079374;28;20048;-68
2022/03/05 05:13:45;;;;;;;15.57;8.23;;;-0.60;99.90;;;;;;5083719;28;20119;-67
2022/03/05 05:16:11;;;;;;;17.63;8.93;;;-0.70;99.90;;;;;;5091213;28;20672;-67
2022/03/05 05:18:36;;;;;;;15.43;8.70;;;-0.70;99.90;;;;;;5092257;28;20111;-66
2022/03/05 05:21:03;;;;;;;16.10;8.05;;;-0.70;99.90;;;;;;5086525;28;20104;-67
2022/03/05 05:23:28;;;;;;;18.83;9.02;;;-0.70;99.90;;;;;;5085318;28;20121;-67
2022/03/05 05:25:54;;;;;;;17.50;8.73;;;-0.60;99.90;;;;;;5084041;28;20093;-68
2022/03/05 05:28:20;;;;;;;19.10;9.35;;;-0.60;99.90;;;;;;5085019;28;20114;-67
2022/03/05 05:30:46;;;;;;;17.40;9.52;;;-0.60;99.90;;;;;;5084813;28;20048;-67
2022/03/05 05:33:11;;;;;;;18.10;8.32;;;-0.60;99.90;;;;;;5086063;28;20588;-67
2022/03/05 05:35:38;;;;;;;18.70;9.02;;;-0.70;99.90;;;;;;5084064;28;20044;-66
2022/03/05 05:38:03;;;;;;;18.80;9.45;;;-0.70;99.90;;;;;;5086451;28;20097;-67
2022/03/05 05:40:29;;;;;;;18.30;9.45;;;-0.70;99.90;;;;;;5084920;28;20052;-67
2022/03/05 05:42:55;;;;;;;17.75;8.75;;;-0.70;99.90;;;;;;5085373;28;20033;-67
2022/03/05 05:45:20;;;;;;;19.90;9.02;;;-0.70;99.90;;;;;;5083016;28;20139;-67
2022/03/05 05:47:46;;;;;;;18.60;9.05;;;-0.80;99.90;;;;;;5084503;28;20105;-67
2022/03/05 05:50:11;;;;;;;20.77;9.82;;;-0.70;99.90;;;;;;5082727;28;20036;-67
2022/03/05 05:52:38;;;;;;;18.45;8.85;;;-0.70;99.90;;;;;;5086525;28;20039;-66
2022/03/05 05:55:04;;;;;;;20.10;9.07;;;-0.70;99.90;;;;;;5084690;28;20044;-67
2022/03/05 05:57:29;;;;;;;19.70;9.98;;;-0.70;99.90;;;;;;5086570;28;20043;-66
2022/03/05 05:59:55;;;;;;;18.50;8.57;;;-0.70;99.90;;;;;;5084701;28;20147;-67
2022/03/05 06:02:21;;;;;;;21.17;10.00;;;-0.70;99.90;;;;;;5085588;28;20165;-67
2022/03/05 06:04:47;;;;;;;21.73;9.98;;;-0.80;99.90;;;;;;5083170;28;20040;-67
2022/03/05 06:07:13;;;;;;;15.82;8.75;;;-0.80;99.90;;;;;;5085309;28;20085;-67
2022/03/05 06:09:38;;;;;;;19.52;9.60;;;-0.80;99.90;;;;;;5084362;28;20071;-67
2022/03/05 06:12:04;;;;;;;20.02;9.45;;;-0.80;99.90;;;;;;5082737;28;20040;-67
2022/03/05 06:14:30;;;;;;;19.98;9.60;;;-0.80;99.90;;;;;;5083646;28;20040;-67
2022/03/05 06:16:55;;;;;;;18.85;9.13;;;-0.80;99.90;;;;;;5087065;28;20044;-67
2022/03/05 06:19:21;;;;;;;22.25;9.50;;;-0.80;99.90;;;;;;5083877;28;20505;-67
2022/03/05 06:21:47;;;;;;;17.02;8.82;;;-0.80;99.90;;;;;;5082701;28;20040;-67
2022/03/05 06:24:12;;;;;;;20.05;9.52;;;-0.80;99.90;;;;;;5084533;28;20067;-67
2022/03/05 06:26:38;;;;;;;21.90;9.55;;;-0.80;99.90;;;;;;5112983;27;20158;-67
2022/03/05 06:29:04;;;;;;;18.98;9.30;;;-0.80;99.90;;;;;;5087073;28;20127;-67
2022/03/05 06:31:29;;;;;;;19.92;10.15;;;-0.80;99.90;;;;;;5087142;28;20474;-66
2022/03/05 06:33:55;;;;;;;20.75;9.82;;;-0.90;99.90;;;;;;5083364;28;21849;-67
2022/03/05 06:36:20;;;;;;;20.75;9.45;;;-0.90;99.90;;;;;;5077096;28;20882;-67
2022/03/05 06:38:46;;;;;;;18.75;9.45;;;-0.90;99.90;;;;;;5083687;28;20104;-70
2022/03/05 06:41:12;;;;;;;18.40;9.57;;;-0.90;99.90;;;;;;5084399;28;20051;-67
2022/03/05 06:43:37;;;;;;;17.98;9.27;;;-0.90;99.90;;;;;;5084691;28;20056;-67
2022/03/05 06:46:03;;;;;;;20.58;9.30;;;-0.80;99.90;;;;;;5083692;28;20036;-67
2022/03/05 06:48:28;;;;;;;22.08;9.60;;;-0.80;99.90;;;;;;5084118;28;20458;-67
2022/03/05 06:50:54;;;;;;;19.50;9.55;;;-0.70;99.90;;;;;;5085816;28;20036;-69
2022/03/05 06:53:19;;;;;;;18.67;9.40;;;-0.70;99.90;;;;;;5081791;28;20044;-67
2022/03/05 06:55:45;;;;;;;18.17;9.25;;;-0.70;99.90;;;;;;5112169;27;20320;-67
2022/03/05 06:58:11;;;;;;;18.85;9.38;;;-0.70;99.90;;;;;;5085648;28;20052;-67
2022/03/05 07:00:36;;;;;;;21.00;9.70;;;-0.60;99.90;;;;;;5083245;28;20517;-66
2022/03/05 07:03:02;;;;;;;17.92;9.75;;;-0.60;99.90;;;;;;5087461;28;20143;-67
2022/03/05 07:05:27;;;;;;;21.65;11.25;;;-0.60;99.90;;;;;;5082873;28;20040;-66
2022/03/05 07:07:53;;;;;;;21.52;12.50;;;-0.60;99.90;;;;;;5084273;28;20080;-66
2022/03/05 07:10:19;;;;;;;19.70;9.73;;;-0.60;99.90;;;;;;5084410;28;20180;-66
2022/03/05 07:12:44;;;;;;;21.00;9.73;;;-0.60;99.90;;;;;;5085624;28;20032;-66
2022/03/05 07:15:10;;;;;;;18.00;8.55;;;-0.50;99.90;;;;;;5082282;28;20059;-67
2022/03/05 07:17:36;;;;;;;18.95;9.15;;;-0.50;99.90;;;;;;5084035;28;20033;-66
2022/03/05 07:20:02;;;;;;;18.25;9.82;;;-0.50;99.90;;;;;;5076640;28;20040;-67
2022/03/05 07:22:28;;;;;;;19.27;9.25;;;-0.50;99.90;;;;;;5084356;28;20052;-67
2022/03/05 07:24:53;;;;;;;19.88;10.35;;;-0.50;99.90;;;;;;5072986;28;20040;-67
2022/03/05 07:27:19;;;;;;;19.77;9.45;;;-0.40;99.90;;;;;;5066588;28;20075;-70
2022/03/05 07:29:46;;;;;;;18.95;9.50;;;-0.40;99.90;;;;;;5084211;28;20089;-67
2022/03/05 07:32:12;;;;;;;18.23;9.07;;;-0.40;99.90;;;;;;5092355;28;20157;-67
2022/03/05 07:34:38;;;;;;;21.90;9.50;;;-0.30;99.90;;;;;;5097786;28;20165;-66
2022/03/05 07:37:04;;;;;;;18.60;9.50;;;-0.30;99.90;;;;;;5088502;28;20036;-66
2022/03/05 07:39:29;;;;;;;18.85;9.38;;;-0.20;99.90;;;;;;5076783;28;20466;-67
2022/03/05 07:41:55;;;;;;;15.60;8.55;;;-0.20;99.90;;;;;;5084455;28;20132;-67
2022/03/05 07:44:20;;;;;;;19.98;8.98;;;-0.10;99.90;;;;;;5088170;28;20040;-67
2022/03/05 07:46:46;;;;;;;18.90;9.10;;;-0.10;99.90;;;;;;5087901;28;20040;-67
2022/03/05 07:49:12;;;;;;;17.70;8.90;;;0.00;99.90;;;;;;5091045;28;20146;-67
2022/03/05 07:51:38;;;;;;;19.10;9.05;;;0.00;99.90;;;;;;5085809;28;20136;-66
2022/03/05 07:54:04;;;;;;;18.92;9.93;;;0.10;99.90;;;;;;5097100;28;20127;-67
2022/03/05 07:56:30;;;;;;;18.10;8.80;;;0.10;99.90;;;;;;5087622;28;20489;-66
2022/03/05 07:58:55;;;;;;;17.05;8.48;;;0.20;99.90;;;;;;5085371;28;20048;-66
2022/03/05 08:01:21;;;;;;;17.83;9.68;;;0.20;99.90;;;;;;5084104;28;20047;-66
2022/03/05 08:03:46;;;;;;;19.27;10.02;;;0.30;99.90;;;;;;5088793;28;20058;-66
2022/03/05 08:06:12;;;;;;;19.75;9.57;;;0.30;99.90;;;;;;5079829;28;20044;-67
2022/03/05 08:08:38;;;;;;;18.00;9.98;;;0.40;99.90;;;;;;5080085;28;20128;-68
2022/03/05 08:11:04;;;;;;;19.98;9.38;;;0.40;99.90;;;;;;5061413;28;20119;-69
2022/03/05 08:13:30;;;;;;;18.45;9.60;;;0.50;99.90;;;;;;5080928;28;20609;-68
2022/03/05 08:15:56;;;;;;;16.50;8.52;;;0.50;99.90;;;;;;5078652;28;20131;-67
2022/03/05 08:18:22;;;;;;;17.58;8.43;;;0.60;99.90;;;;;;5105243;27;20053;-68
2022/03/05 08:20:48;;;;;;;18.05;8.93;;;0.60;99.90;;;;;;5072159;28;20125;-69
2022/03/05 08:23:13;;;;;;;16.65;8.45;;;0.70;99.90;;;;;;5089390;28;20070;-69
2022/03/05 08:25:39;;;;;;;18.48;9.38;;;0.70;99.90;;;;;;5087660;28;20047;-69
2022/03/05 08:28:05;;;;;;;19.85;9.60;;;0.70;99.90;;;;;;5083480;28;20049;-67
2022/03/05 08:30:31;;;;;;;17.83;9.05;;;0.80;99.90;;;;;;5078752;28;20130;-67
2022/03/05 08:32:56;;;;;;;22.23;10.48;;;0.80;99.90;;;;;;5087791;28;20156;-67
2022/03/05 08:35:22;;;;;;;18.73;9.45;;;0.90;99.90;;;;;;5080743;28;20056;-69
2022/03/05 08:37:49;;;;;;;18.80;9.48;;;0.90;99.90;;;;;;5082970;28;20128;-69
2022/03/05 08:40:15;;;;;;;21.52;10.05;;;1.00;99.90;;;;;;5089411;28;20127;-65
2022/03/05 08:42:42;;;;;;;19.65;10.48;;;1.00;99.90;;;;;;5086490;28;20115;-67
2022/03/05 08:45:08;;;;;;;20.10;10.23;;;1.10;99.90;;;;;;5078804;28;20086;-67
2022/03/05 08:47:37;;;;;;;19.48;9.80;;;1.10;99.90;;;;;;5089876;28;20032;-67
2022/03/05 08:50:05;;;;;;;25.45;10.23;;;1.20;99.90;;;;;;5081107;28;20139;-66
2022/03/05 08:52:35;;;;;;;21.30;10.63;;;1.20;99.90;;;;;;5086326;28;20043;-66
2022/03/05 08:55:07;;;;;;;20.73;10.25;;;1.30;99.90;;;;;;5087174;28;20040;-66
2022/03/05 08:57:33;;;;;;;19.55;10.13;;;1.30;99.90;;;;;;5096262;28;20114;-66
2022/03/05 08:59:59;;;;;;;20.10;10.00;;;1.40;99.90;;;;;;5091234;28;20110;-66
2022/03/05 09:02:25;;;;;;;21.48;10.50;;;1.50;99.90;;;;;;5087453;28;20074;-66
2022/03/05 09:04:52;;;;;;;20.10;10.82;;;1.50;99.90;;;;;;5086769;28;20067;-66
2022/03/05 09:07:18;;;;;;;21.52;11.02;;;1.60;99.90;;;;;;5092153;28;20116;-66
2022/03/05 09:09:44;;;;;;;23.95;11.25;;;1.60;99.90;;;;;;5095657;28;20071;-66
2022/03/05 09:12:10;;;;;;;23.60;11.57;;;1.70;99.90;;;;;;5098731;28;20086;-67
2022/03/05 09:14:35;;;;;;;20.33;10.25;;;1.70;99.90;;;;;;5085066;28;20067;-66
2022/03/05 09:17:01;;;;;;;22.42;11.43;;;1.80;99.90;;;;;;5084076;28;20389;-66
2022/03/05 09:19:26;;;;;;;22.85;11.40;;;1.90;99.90;;;;;;5081110;28;20094;-66
2022/03/05 09:21:52;;;;;;;26.45;11.93;;;2.00;99.90;;;;;;5087564;28;20113;-66
2022/03/05 09:24:17;;;;;;;22.73;11.75;;;2.00;99.90;;;;;;5090269;28;20066;-66
2022/03/05 09:26:43;;;;;;;23.88;11.88;;;2.10;99.90;;;;;;5085036;28;20188;-67
2022/03/05 09:29:08;;;;;;;24.00;10.98;;;2.10;99.90;;;;;;5087023;28;20079;-67
2022/03/05 09:31:34;;;;;;;23.20;11.55;;;2.20;99.90;;;;;;5086828;28;20153;-66
2022/03/05 09:34:00;;;;;;;23.92;12.98;;;2.30;99.90;;;;;;5082908;28;20562;-67
2022/03/05 09:36:25;;;;;;;22.67;11.50;;;2.40;99.90;;;;;;5085723;28;20044;-67
2022/03/05 09:38:51;;;;;;;24.50;12.57;;;2.40;99.90;;;;;;5084091;28;20060;-66
2022/03/05 09:41:17;;;;;;;23.77;12.60;;;2.40;99.90;;;;;;5089094;28;20149;-67
2022/03/05 09:43:43;;;;;;;24.48;12.55;;;2.50;99.90;;;;;;5078229;28;20040;-67
2022/03/05 09:46:09;;;;;;;25.25;12.23;;;2.60;99.90;;;;;;5089490;28;20055;-68
2022/03/05 09:48:37;;;;;;;27.60;13.68;;;2.70;99.90;;;;;;5077397;28;20064;-67
2022/03/05 09:51:03;;;;;;;25.00;12.27;;;2.80;99.90;;;;;;5080225;28;20064;-66
2022/03/05 09:53:30;;;;;;;28.77;13.65;;;2.80;99.90;;;;;;5078817;28;20053;-67
2022/03/05 09:55:56;;;;;;;28.35;12.73;;;2.90;99.90;;;;;;5076974;28;20044;-69
2022/03/05 09:58:22;;;;;;;28.45;13.70;;;2.90;99.90;;;;;;5086505;28;20052;-67
2022/03/05 10:00:48;;;;;;;25.60;12.77;;;3.00;99.90;;;;;;5075190;28;20047;-68
2022/03/05 10:03:14;;;;;;;28.27;12.38;;;3.00;99.90;;;;;;5081288;28;20051;-69
2022/03/05 10:05:40;;;;;;;24.30;12.82;;;3.10;99.90;;;;;;5082347;28;20036;-67
2022/03/05 10:08:11;;;;;;;27.88;13.00;;;3.10;99.90;;;;;;5085439;28;20449;-68
2022/03/05 10:10:50;;;;;;;25.42;13.07;;;3.10;99.90;;;;;;5087013;28;20043;-66
2022/03/05 10:13:28;;;;;;;25.27;12.85;;;3.20;99.90;;;;;;5093894;28;20036;-65
2022/03/05 10:15:56;;;;;;;23.92;12.10;;;3.30;99.90;;;;;;5082124;28;20126;-65
2022/03/05 10:18:33;;;;;;;27.35;13.82;;;3.30;99.90;;;;;;5079357;28;20052;-68
2022/03/05 10:21:00;;;;;;;25.23;12.90;;;3.30;99.90;;;;;;5083675;28;20444;-66
2022/03/05 10:23:26;;;;;;;25.70;12.68;;;3.40;99.90;;;;;;5087687;28;20040;-65
2022/03/05 10:25:53;;;;;;;25.27;12.88;;;3.40;99.90;;;;;;5082423;28;20117;-66
2022/03/05 10:28:27;;;;;;;22.60;12.18;;;3.50;99.90;;;;;;5081331;28;20493;-67
2022/03/05 10:30:55;;;;;;;25.77;13.02;;;3.50;99.90;;;;;;5084950;28;20119;-66
2022/03/05 10:33:36;;;;;;;27.98;14.63;;;3.60;99.90;;;;;;5086892;28;20082;-69
2022/03/05 10:36:09;;;;;;;27.58;13.57;;;3.70;99.90;;;;;;5085766;28;20131;-66
2022/03/05 10:38:50;;;;;;;26.52;13.50;;;3.70;99.90;;;;;;5083942;28;20040;-69
2022/03/05 10:41:21;;;;;;;25.50;13.02;;;3.80;99.90;;;;;;5086762;28;20050;-66
2022/03/05 10:44:11;;;;;;;25.52;13.68;;;3.80;99.90;;;;;;5087238;28;20039;-67
2022/03/05 10:46:57;;;;;;;27.63;13.88;;;3.90;99.90;;;;;;5084919;28;20055;-67
2022/03/05 10:49:27;;;;;;;28.00;14.05;;;3.90;99.90;;;;;;5082121;28;20083;-70
2022/03/05 10:52:06;;;;;;;27.45;13.32;;;4.00;99.90;;;;;;5083644;28;20508;-69
2022/03/05 10:54:41;;;;;;;25.60;12.90;;;4.00;99.90;;;;;;5083984;28;20063;-67
2022/03/05 10:57:11;;;;;;;28.53;13.63;;;4.00;99.90;;;;;;5084219;28;20043;-69
2022/03/05 10:59:41;;;;;;;27.23;13.88;;;4.00;99.90;;;;;;5078436;28;20104;-67
2022/03/05 11:02:08;;;;;;;25.20;13.23;;;4.10;99.90;;;;;;5087263;28;20036;-68
2022/03/05 11:04:35;;;;;;;27.20;14.45;;;4.10;99.90;;;;;;5079328;28;20068;-70
2022/03/05 11:07:02;;;;;;;25.85;13.15;;;4.20;99.90;;;;;;5083543;28;20044;-70
2022/03/05 11:09:29;;;;;;;28.60;14.18;;;4.20;99.90;;;;;;5084204;28;20422;-71
2022/03/05 11:11:58;;;;;;;26.73;14.07;;;4.30;99.90;;;;;;5076258;28;21888;-69
2022/03/05 11:14:25;;;;;;;28.52;14.25;;;4.30;99.90;;;;;;5087038;28;20081;-69
2022/03/05 11:16:50;;;;;;;31.60;13.98;;;4.30;99.90;;;;;;5086563;28;20090;-68
2022/03/05 11:19:16;;;;;;;28.52;14.30;;;4.30;99.90;;;;;;5085390;28;20052;-70
2022/03/05 11:21:42;;;;;;;30.92;14.48;;;4.30;99.90;;;;;;5083682;28;20166;-68
2022/03/05 11:24:12;;;;;;;25.98;13.80;;;4.40;99.90;;;;;;5084392;28;20476;-69
2022/03/05 11:26:38;;;;;;;28.05;14.18;;;4.40;99.90;;;;;;5073873;28;20044;-69
2022/03/05 11:29:04;;;;;;;28.60;14.88;;;4.50;99.90;;;;;;5086444;28;20059;-70
2022/03/05 11:31:34;;;;;;;28.08;14.75;;;4.50;99.90;;;;;;5080369;28;20092;-70
2022/03/05 11:34:41;;;;;;;27.63;14.73;;;4.50;99.90;;;;;;5086714;28;20115;-70
2022/03/05 11:37:22;;;;;;;26.05;13.45;;;4.50;99.90;;;;;;5076163;28;20139;-70
2022/03/05 11:39:48;;;;;;;25.33;13.07;;;4.60;99.90;;;;;;5079821;28;20107;-70
2022/03/05 11:42:33;;;;;;;25.38;13.45;;;4.60;99.90;;;;;;5073524;28;20118;-69
2022/03/05 11:45:02;;;;;;;25.85;13.70;;;4.70;99.90;;;;;;5090161;28;20043;-71
2022/03/05 11:47:33;;;;;;;27.77;13.60;;;4.70;99.90;;;;;;5089024;28;20178;-69
2022/03/05 11:49:58;;;;;;;27.48;14.00;;;4.70;99.90;;;;;;5075250;28;20201;-68
2022/03/05 11:52:39;;;;;;;23.83;11.50;;;4.80;99.90;;;;;;5085567;28;20577;-69
2022/03/05 11:55:11;;;;;;;27.42;14.25;;;4.80;99.90;;;;;;5076410;28;20473;-71
2022/03/05 11:57:41;;;;;;;26.98;15.13;;;5.00;99.90;;;;;;5098937;28;20066;-68
2022/03/05 12:00:08;;;;;;;24.45;13.90;;;5.00;99.90;;;;;;5076857;28;20497;-69
2022/03/05 12:02:43;;;;;;;30.13;14.60;;;5.00;99.90;;;;;;5078486;28;20194;-70
2022/03/05 12:05:08;;;;;;;28.23;14.32;;;5.10;99.90;;;;;;5085718;28;20067;-70
2022/03/05 12:07:40;;;;;;;26.58;14.25;;;5.10;99.90;;;;;;5091726;28;20080;-70
2022/03/05 12:10:13;;;;;;;27.00;13.70;;;5.10;99.90;;;;;;5102992;27;20436;-69
2022/03/05 12:13:01;;;;;;;25.60;13.63;;;5.20;99.90;;;;;;5079433;28;20120;-70
2022/03/05 12:15:34;;;;;;;27.48;13.43;;;5.20;99.90;;;;;;5077465;28;20338;-70
2022/03/05 12:18:03;;;;;;;27.55;14.38;;;5.20;99.90;;;;;;5083675;28;20123;-71
2022/03/05 12:20:39;;;;;;;26.75;14.30;;;5.20;99.90;;;;;;5085819;28;20043;-71
2022/03/05 12:23:10;;;;;;;26.45;14.13;;;5.20;99.90;;;;;;5080242;28;20056;-69
2022/03/05 12:25:38;;;;;;;27.15;14.43;;;5.30;99.90;;;;;;5077011;28;20044;-69
2022/03/05 12:28:10;;;;;;;26.50;13.88;;;5.40;99.90;;;;;;5084274;28;20110;-69
2022/03/05 12:30:37;;;;;;;31.30;15.32;;;5.30;99.90;;;;;;5085321;28;20119;-70
2022/03/05 12:33:09;;;;;;;26.40;14.40;;;5.40;99.90;;;;;;5079453;28;20047;-69
2022/03/05 12:35:36;;;;;;;25.77;13.88;;;5.50;99.90;;;;;;5084895;28;20403;-69
2022/03/05 12:38:03;;;;;;;28.90;15.48;;;5.50;99.90;;;;;;5084877;28;20478;-70
2022/03/05 12:40:31;;;;;;;30.45;14.82;;;5.50;99.90;;;;;;5068953;28;21014;-67